sensor_id;sensor_type;location;lat;lon;timestamp;P1;durP1;ratioP1;P2;durP2;ratioP2
15624;SDS011;7912;51.376;6.126;2023-03-23T00:02:09;3.27;;;2.60;;
15624;SDS011;7912;51.376;6.126;2023-03-23T00:04:40;3.40;;;2.50;;
15624;SDS011;7912;51.376;6.126;2023-03-23T00:07:10;2.67;;;2.40;;
15624;SDS011;7912;51.376;6.126;2023-03-23T00:09:38;4.30;;;2.77;;
15624;SDS011;7912;51.376;6.126;2023-03-23T00:12:06;3.00;;;2.50;;
15624;SDS011;7912;51.376;6.126;2023-03-23T00:14:37;3.40;;;2.80;;
15624;SDS011;7912;51.376;6.126;2023-03-23T00:17:12;3.53;;;2.60;;
15624;SDS011;7912;51.376;6.126;2023-03-23T00:19:39;4.00;;;2.83;;
15624;SDS011;7912;51.376;6.126;2023-03-23T00:22:21;3.33;;;2.90;;
15624;SDS011;7912;51.376;6.126;2023-03-23T00:24:50;3.37;;;3.00;;
15624;SDS011;7912;51.376;6.126;2023-03-23T00:27:23;3.20;;;2.90;;
15624;SDS011;7912;51.376;6.126;2023-03-23T00:29:50;2.90;;;2.60;;
15624;SDS011;7912;51.376;6.126;2023-03-23T00:32:21;4.60;;;2.87;;
15624;SDS011;7912;51.376;6.126;2023-03-23T00:34:56;3.67;;;2.60;;
15624;SDS011;7912;51.376;6.126;2023-03-23T00:37:32;3.10;;;2.80;;
15624;SDS011;7912;51.376;6.126;2023-03-23T00:40:07;4.17;;;3.00;;
15624;SDS011;7912;51.376;6.126;2023-03-23T00:42:35;3.40;;;3.00;;
15624;SDS011;7912;51.376;6.126;2023-03-23T00:45:03;3.80;;;2.80;;
15624;SDS011;7912;51.376;6.126;2023-03-23T00:47:37;3.37;;;2.70;;
15624;SDS011;7912;51.376;6.126;2023-03-23T00:50:03;3.87;;;3.00;;
15624;SDS011;7912;51.376;6.126;2023-03-23T00:52:31;3.87;;;2.83;;
15624;SDS011;7912;51.376;6.126;2023-03-23T00:54:57;2.80;;;2.60;;
15624;SDS011;7912;51.376;6.126;2023-03-23T00:57:25;6.40;;;2.93;;
15624;SDS011;7912;51.376;6.126;2023-03-23T00:59:56;3.73;;;2.90;;
15624;SDS011;7912;51.376;6.126;2023-03-23T01:02:23;3.07;;;2.77;;
15624;SDS011;7912;51.376;6.126;2023-03-23T01:04:50;3.13;;;2.87;;
15624;SDS011;7912;51.376;6.126;2023-03-23T01:07:22;3.33;;;3.03;;
15624;SDS011;7912;51.376;6.126;2023-03-23T01:09:52;3.27;;;2.93;;
15624;SDS011;7912;51.376;6.126;2023-03-23T01:12:29;3.47;;;2.70;;
15624;SDS011;7912;51.376;6.126;2023-03-23T01:14:58;3.30;;;3.00;;
15624;SDS011;7912;51.376;6.126;2023-03-23T01:17:25;4.10;;;2.93;;
15624;SDS011;7912;51.376;6.126;2023-03-23T01:19:51;4.30;;;3.10;;
15624;SDS011;7912;51.376;6.126;2023-03-23T01:22:17;3.50;;;2.83;;
15624;SDS011;7912;51.376;6.126;2023-03-23T01:24:50;4.50;;;3.33;;
15624;SDS011;7912;51.376;6.126;2023-03-23T01:27:18;3.10;;;2.80;;
15624;SDS011;7912;51.376;6.126;2023-03-23T01:29:47;4.17;;;3.07;;
15624;SDS011;7912;51.376;6.126;2023-03-23T01:32:13;3.60;;;3.23;;
15624;SDS011;7912;51.376;6.126;2023-03-23T01:34:40;3.40;;;2.97;;
15624;SDS011;7912;51.376;6.126;2023-03-23T01:37:06;3.27;;;2.97;;
15624;SDS011;7912;51.376;6.126;2023-03-23T01:39:39;3.33;;;3.03;;
15624;SDS011;7912;51.376;6.126;2023-03-23T01:42:09;3.87;;;3.07;;
15624;SDS011;7912;51.376;6.126;2023-03-23T01:47:10;3.47;;;3.10;;
15624;SDS011;7912;51.376;6.126;2023-03-23T01:49:38;3.50;;;3.20;;
15624;SDS011;7912;51.376;6.126;2023-03-23T01:52:19;3.73;;;3.13;;
15624;SDS011;7912;51.376;6.126;2023-03-23T01:54:57;3.90;;;2.70;;
15624;SDS011;7912;51.376;6.126;2023-03-23T01:57:31;3.13;;;2.67;;
15624;SDS011;7912;51.376;6.126;2023-03-23T02:00:01;3.77;;;3.17;;
15624;SDS011;7912;51.376;6.126;2023-03-23T02:02:43;3.87;;;3.23;;
15624;SDS011;7912;51.376;6.126;2023-03-23T02:05:35;4.40;;;3.23;;
15624;SDS011;7912;51.376;6.126;2023-03-23T02:08:08;4.23;;;3.30;;
15624;SDS011;7912;51.376;6.126;2023-03-23T02:10:40;3.83;;;3.43;;
15624;SDS011;7912;51.376;6.126;2023-03-23T02:13:07;5.40;;;3.10;;
15624;SDS011;7912;51.376;6.126;2023-03-23T02:31:42;3.47;;;3.17;;
15624;SDS011;7912;51.376;6.126;2023-03-23T02:34:50;4.77;;;3.37;;
15624;SDS011;7912;51.376;6.126;2023-03-23T02:37:43;3.33;;;2.93;;
15624;SDS011;7912;51.376;6.126;2023-03-23T02:40:25;3.60;;;3.30;;
15624;SDS011;7912;51.376;6.126;2023-03-23T02:43:09;3.67;;;3.30;;
15624;SDS011;7912;51.376;6.126;2023-03-23T02:45:42;4.30;;;3.13;;
15624;SDS011;7912;51.376;6.126;2023-03-23T02:48:11;4.10;;;3.30;;
15624;SDS011;7912;51.376;6.126;2023-03-23T02:50:45;3.63;;;3.00;;
15624;SDS011;7912;51.376;6.126;2023-03-23T02:53:17;4.97;;;3.37;;
15624;SDS011;7912;51.376;6.126;2023-03-23T02:55:52;3.67;;;3.37;;
15624;SDS011;7912;51.376;6.126;2023-03-23T02:58:22;4.30;;;3.47;;
15624;SDS011;7912;51.376;6.126;2023-03-23T03:00:51;3.50;;;3.20;;
15624;SDS011;7912;51.376;6.126;2023-03-23T03:03:23;3.43;;;3.13;;
15624;SDS011;7912;51.376;6.126;2023-03-23T03:08:55;3.93;;;3.53;;
15624;SDS011;7912;51.376;6.126;2023-03-23T03:11:46;3.93;;;3.43;;
15624;SDS011;7912;51.376;6.126;2023-03-23T03:14:45;3.87;;;3.40;;
15624;SDS011;7912;51.376;6.126;2023-03-23T03:17:59;3.93;;;3.57;;
15624;SDS011;7912;51.376;6.126;2023-03-23T03:20:32;4.07;;;3.20;;
15624;SDS011;7912;51.376;6.126;2023-03-23T03:23:09;3.47;;;3.17;;
15624;SDS011;7912;51.376;6.126;2023-03-23T03:25:39;3.70;;;3.40;;
15624;SDS011;7912;51.376;6.126;2023-03-23T03:28:21;3.93;;;2.87;;
15624;SDS011;7912;51.376;6.126;2023-03-23T03:30:57;2.83;;;2.60;;
15624;SDS011;7912;51.376;6.126;2023-03-23T03:33:28;3.20;;;2.90;;
15624;SDS011;7912;51.376;6.126;2023-03-23T03:35:59;3.40;;;3.10;;
15624;SDS011;7912;51.376;6.126;2023-03-23T03:38:40;3.20;;;2.90;;
15624;SDS011;7912;51.376;6.126;2023-03-23T03:41:17;3.20;;;2.90;;
15624;SDS011;7912;51.376;6.126;2023-03-23T03:43:52;3.20;;;2.90;;
15624;SDS011;7912;51.376;6.126;2023-03-23T03:46:19;3.40;;;3.00;;
15624;SDS011;7912;51.376;6.126;2023-03-23T03:48:52;2.87;;;2.67;;
15624;SDS011;7912;51.376;6.126;2023-03-23T03:51:19;3.27;;;2.93;;
15624;SDS011;7912;51.376;6.126;2023-03-23T03:53:53;3.10;;;2.80;;
15624;SDS011;7912;51.376;6.126;2023-03-23T03:56:26;2.60;;;2.40;;
15624;SDS011;7912;51.376;6.126;2023-03-23T03:58:53;3.67;;;3.37;;
15624;SDS011;7912;51.376;6.126;2023-03-23T04:01:20;3.20;;;2.70;;
15624;SDS011;7912;51.376;6.126;2023-03-23T04:03:54;3.53;;;2.80;;
15624;SDS011;7912;51.376;6.126;2023-03-23T04:06:24;3.20;;;2.70;;
15624;SDS011;7912;51.376;6.126;2023-03-23T04:08:55;2.70;;;2.50;;
15624;SDS011;7912;51.376;6.126;2023-03-23T04:11:26;2.97;;;2.77;;
15624;SDS011;7912;51.376;6.126;2023-03-23T04:13:53;3.30;;;2.60;;
15624;SDS011;7912;51.376;6.126;2023-03-23T04:16:22;4.03;;;2.90;;
15624;SDS011;7912;51.376;6.126;2023-03-23T04:18:48;3.70;;;2.83;;
15624;SDS011;7912;51.376;6.126;2023-03-23T04:21:27;3.47;;;2.80;;
15624;SDS011;7912;51.376;6.126;2023-03-23T04:23:56;3.77;;;2.80;;
15624;SDS011;7912;51.376;6.126;2023-03-23T04:26:26;3.03;;;2.83;;
15624;SDS011;7912;51.376;6.126;2023-03-23T04:28:56;3.07;;;2.77;;
15624;SDS011;7912;51.376;6.126;2023-03-23T04:31:28;3.43;;;2.87;;
15624;SDS011;7912;51.376;6.126;2023-03-23T04:33:55;3.60;;;2.83;;
15624;SDS011;7912;51.376;6.126;2023-03-23T04:36:29;3.10;;;2.80;;
15624;SDS011;7912;51.376;6.126;2023-03-23T04:38:59;4.60;;;3.00;;
15624;SDS011;7912;51.376;6.126;2023-03-23T04:41:35;2.93;;;2.63;;
15624;SDS011;7912;51.376;6.126;2023-03-23T04:44:04;2.90;;;2.60;;
15624;SDS011;7912;51.376;6.126;2023-03-23T04:46:33;2.80;;;2.60;;
15624;SDS011;7912;51.376;6.126;2023-03-23T04:48:59;3.10;;;2.80;;
15624;SDS011;7912;51.376;6.126;2023-03-23T04:51:30;3.93;;;2.80;;
15624;SDS011;7912;51.376;6.126;2023-03-23T04:54:00;3.27;;;2.80;;
15624;SDS011;7912;51.376;6.126;2023-03-23T04:56:30;3.97;;;2.60;;
15624;SDS011;7912;51.376;6.126;2023-03-23T04:59:10;3.27;;;2.80;;
15624;SDS011;7912;51.376;6.126;2023-03-23T05:01:42;3.33;;;3.03;;
15624;SDS011;7912;51.376;6.126;2023-03-23T05:04:20;3.63;;;2.90;;
15624;SDS011;7912;51.376;6.126;2023-03-23T05:06:59;3.50;;;3.00;;
15624;SDS011;7912;51.376;6.126;2023-03-23T05:09:36;2.70;;;2.50;;
15624;SDS011;7912;51.376;6.126;2023-03-23T05:12:06;3.03;;;2.53;;
15624;SDS011;7912;51.376;6.126;2023-03-23T05:14:44;2.57;;;2.30;;
15624;SDS011;7912;51.376;6.126;2023-03-23T05:17:17;3.37;;;2.70;;
15624;SDS011;7912;51.376;6.126;2023-03-23T05:19:48;2.97;;;2.50;;
15624;SDS011;7912;51.376;6.126;2023-03-23T05:22:26;2.63;;;2.10;;
15624;SDS011;7912;51.376;6.126;2023-03-23T05:25:01;3.77;;;2.77;;
15624;SDS011;7912;51.376;6.126;2023-03-23T05:27:35;3.43;;;2.43;;
15624;SDS011;7912;51.376;6.126;2023-03-23T05:30:08;2.93;;;2.57;;
15624;SDS011;7912;51.376;6.126;2023-03-23T05:32:51;3.03;;;2.10;;
15624;SDS011;7912;51.376;6.126;2023-03-23T05:35:29;3.30;;;2.00;;
15624;SDS011;7912;51.376;6.126;2023-03-23T05:38:07;2.80;;;2.10;;
15624;SDS011;7912;51.376;6.126;2023-03-23T05:40:39;3.30;;;2.43;;
15624;SDS011;7912;51.376;6.126;2023-03-23T05:43:09;3.03;;;2.00;;
15624;SDS011;7912;51.376;6.126;2023-03-23T05:46:03;3.17;;;2.17;;
15624;SDS011;7912;51.376;6.126;2023-03-23T05:48:32;3.17;;;2.13;;
15624;SDS011;7912;51.376;6.126;2023-03-23T05:51:10;2.27;;;1.93;;
15624;SDS011;7912;51.376;6.126;2023-03-23T05:53:46;2.50;;;1.93;;
15624;SDS011;7912;51.376;6.126;2023-03-23T05:56:31;4.07;;;2.00;;
15624;SDS011;7912;51.376;6.126;2023-03-23T05:59:05;3.10;;;2.00;;
15624;SDS011;7912;51.376;6.126;2023-03-23T06:01:42;4.17;;;2.17;;
15624;SDS011;7912;51.376;6.126;2023-03-23T06:04:31;3.13;;;1.90;;
15624;SDS011;7912;51.376;6.126;2023-03-23T06:07:07;3.13;;;2.00;;
15624;SDS011;7912;51.376;6.126;2023-03-23T06:09:45;4.13;;;2.20;;
15624;SDS011;7912;51.376;6.126;2023-03-23T06:12:14;4.07;;;2.10;;
15624;SDS011;7912;51.376;6.126;2023-03-23T06:14:40;3.63;;;2.07;;
15624;SDS011;7912;51.376;6.126;2023-03-23T06:17:08;2.80;;;2.00;;
15624;SDS011;7912;51.376;6.126;2023-03-23T06:19:41;3.63;;;1.83;;
15624;SDS011;7912;51.376;6.126;2023-03-23T06:22:10;3.53;;;2.10;;
15624;SDS011;7912;51.376;6.126;2023-03-23T06:24:45;3.13;;;1.80;;
15624;SDS011;7912;51.376;6.126;2023-03-23T06:27:29;2.87;;;1.90;;
15624;SDS011;7912;51.376;6.126;2023-03-23T06:30:00;4.93;;;2.00;;
15624;SDS011;7912;51.376;6.126;2023-03-23T06:32:38;5.33;;;2.10;;
15624;SDS011;7912;51.376;6.126;2023-03-23T06:35:17;3.13;;;1.53;;
15624;SDS011;7912;51.376;6.126;2023-03-23T06:37:44;2.47;;;1.63;;
15624;SDS011;7912;51.376;6.126;2023-03-23T06:40:10;3.30;;;1.63;;
15624;SDS011;7912;51.376;6.126;2023-03-23T06:46:33;3.07;;;1.83;;
15624;SDS011;7912;51.376;6.126;2023-03-23T06:49:00;3.47;;;1.90;;
15624;SDS011;7912;51.376;6.126;2023-03-23T06:51:35;3.10;;;2.00;;
15624;SDS011;7912;51.376;6.126;2023-03-23T06:54:08;2.57;;;1.80;;
15624;SDS011;7912;51.376;6.126;2023-03-23T06:56:41;2.97;;;1.53;;
15624;SDS011;7912;51.376;6.126;2023-03-23T06:59:07;2.87;;;1.70;;
15624;SDS011;7912;51.376;6.126;2023-03-23T07:01:35;3.07;;;1.60;;
15624;SDS011;7912;51.376;6.126;2023-03-23T07:04:17;3.43;;;1.87;;
15624;SDS011;7912;51.376;6.126;2023-03-23T07:06:49;3.87;;;1.90;;
15624;SDS011;7912;51.376;6.126;2023-03-23T07:09:25;3.27;;;1.50;;
15624;SDS011;7912;51.376;6.126;2023-03-23T07:11:53;3.43;;;1.80;;
15624;SDS011;7912;51.376;6.126;2023-03-23T07:14:21;3.03;;;1.70;;
15624;SDS011;7912;51.376;6.126;2023-03-23T07:16:55;3.43;;;1.77;;
15624;SDS011;7912;51.376;6.126;2023-03-23T07:19:21;4.67;;;1.97;;
15624;SDS011;7912;51.376;6.126;2023-03-23T07:21:47;2.80;;;1.97;;
15624;SDS011;7912;51.376;6.126;2023-03-23T07:24:14;3.17;;;1.70;;
15624;SDS011;7912;51.376;6.126;2023-03-23T07:26:43;3.70;;;1.80;;
15624;SDS011;7912;51.376;6.126;2023-03-23T07:29:10;3.37;;;1.90;;
15624;SDS011;7912;51.376;6.126;2023-03-23T07:31:50;3.40;;;1.67;;
15624;SDS011;7912;51.376;6.126;2023-03-23T07:34:25;4.20;;;1.80;;
15624;SDS011;7912;51.376;6.126;2023-03-23T07:36:54;2.17;;;1.40;;
15624;SDS011;7912;51.376;6.126;2023-03-23T07:39:31;3.03;;;1.80;;
15624;SDS011;7912;51.376;6.126;2023-03-23T07:42:05;3.07;;;1.80;;
15624;SDS011;7912;51.376;6.126;2023-03-23T07:44:33;3.57;;;2.00;;
15624;SDS011;7912;51.376;6.126;2023-03-23T07:47:00;2.40;;;1.60;;
15624;SDS011;7912;51.376;6.126;2023-03-23T07:49:28;2.63;;;1.67;;
15624;SDS011;7912;51.376;6.126;2023-03-23T07:52:00;4.00;;;1.77;;
15624;SDS011;7912;51.376;6.126;2023-03-23T07:54:37;3.27;;;1.70;;
15624;SDS011;7912;51.376;6.126;2023-03-23T07:57:07;2.50;;;1.70;;
15624;SDS011;7912;51.376;6.126;2023-03-23T07:59:38;3.27;;;1.80;;
15624;SDS011;7912;51.376;6.126;2023-03-23T08:02:10;2.30;;;1.70;;
15624;SDS011;7912;51.376;6.126;2023-03-23T08:04:40;2.53;;;1.60;;
15624;SDS011;7912;51.376;6.126;2023-03-23T08:07:12;3.27;;;1.80;;
15624;SDS011;7912;51.376;6.126;2023-03-23T08:09:45;3.50;;;1.70;;
15624;SDS011;7912;51.376;6.126;2023-03-23T08:12:16;4.60;;;1.80;;
15624;SDS011;7912;51.376;6.126;2023-03-23T08:14:43;4.03;;;1.70;;
15624;SDS011;7912;51.376;6.126;2023-03-23T08:17:29;4.93;;;1.80;;
15624;SDS011;7912;51.376;6.126;2023-03-23T08:20:02;5.53;;;2.03;;
15624;SDS011;7912;51.376;6.126;2023-03-23T08:22:48;3.17;;;1.80;;
15624;SDS011;7912;51.376;6.126;2023-03-23T08:25:24;2.97;;;1.70;;
15624;SDS011;7912;51.376;6.126;2023-03-23T08:27:51;3.60;;;1.60;;
15624;SDS011;7912;51.376;6.126;2023-03-23T08:30:29;4.87;;;1.93;;
15624;SDS011;7912;51.376;6.126;2023-03-23T08:33:07;3.60;;;1.90;;
15624;SDS011;7912;51.376;6.126;2023-03-23T08:35:43;3.57;;;2.17;;
15624;SDS011;7912;51.376;6.126;2023-03-23T08:38:10;4.40;;;1.97;;
15624;SDS011;7912;51.376;6.126;2023-03-23T08:50:47;5.33;;;1.77;;
15624;SDS011;7912;51.376;6.126;2023-03-23T08:53:15;5.13;;;1.70;;
15624;SDS011;7912;51.376;6.126;2023-03-23T08:55:42;4.67;;;1.90;;
15624;SDS011;7912;51.376;6.126;2023-03-23T08:58:09;4.03;;;1.70;;
15624;SDS011;7912;51.376;6.126;2023-03-23T09:00:36;4.13;;;1.90;;
15624;SDS011;7912;51.376;6.126;2023-03-23T09:03:03;4.03;;;1.70;;
15624;SDS011;7912;51.376;6.126;2023-03-23T09:05:32;2.60;;;1.47;;
15624;SDS011;7912;51.376;6.126;2023-03-23T09:08:13;3.57;;;1.60;;
15624;SDS011;7912;51.376;6.126;2023-03-23T09:10:59;2.87;;;1.53;;
15624;SDS011;7912;51.376;6.126;2023-03-23T09:13:34;3.30;;;1.53;;
15624;SDS011;7912;51.376;6.126;2023-03-23T09:16:07;3.33;;;1.70;;
15624;SDS011;7912;51.376;6.126;2023-03-23T09:18:43;2.20;;;1.60;;
15624;SDS011;7912;51.376;6.126;2023-03-23T09:21:56;2.83;;;1.40;;
15624;SDS011;7912;51.376;6.126;2023-03-23T09:24:24;1.80;;;1.23;;
15624;SDS011;7912;51.376;6.126;2023-03-23T09:30:47;1.30;;;0.90;;
15624;SDS011;7912;51.376;6.126;2023-03-23T09:36:37;1.97;;;1.60;;
15624;SDS011;7912;51.376;6.126;2023-03-23T09:39:20;3.40;;;1.30;;
15624;SDS011;7912;51.376;6.126;2023-03-23T09:52:56;2.70;;;1.40;;
15624;SDS011;7912;51.376;6.126;2023-03-23T09:55:52;2.10;;;1.20;;
15624;SDS011;7912;51.376;6.126;2023-03-23T10:06:34;2.37;;;1.13;;
15624;SDS011;7912;51.376;6.126;2023-03-23T10:30:03;2.40;;;1.20;;
15624;SDS011;7912;51.376;6.126;2023-03-23T10:43:48;2.50;;;1.10;;
15624;SDS011;7912;51.376;6.126;2023-03-23T10:50:54;1.87;;;1.07;;
15624;SDS011;7912;51.376;6.126;2023-03-23T10:54:23;2.00;;;1.20;;
15624;SDS011;7912;51.376;6.126;2023-03-23T11:01:52;2.30;;;1.27;;
15624;SDS011;7912;51.376;6.126;2023-03-23T11:05:25;1.40;;;1.20;;
15624;SDS011;7912;51.376;6.126;2023-03-23T11:12:23;1.53;;;1.30;;
15624;SDS011;7912;51.376;6.126;2023-03-23T11:18:57;1.70;;;1.27;;
15624;SDS011;7912;51.376;6.126;2023-03-23T11:25:03;1.60;;;1.20;;
15624;SDS011;7912;51.376;6.126;2023-03-23T11:27:51;2.00;;;1.20;;
15624;SDS011;7912;51.376;6.126;2023-03-23T11:30:29;2.07;;;1.10;;
15624;SDS011;7912;51.376;6.126;2023-03-23T11:33:08;1.87;;;1.17;;
15624;SDS011;7912;51.376;6.126;2023-03-23T11:35:59;2.03;;;1.13;;
15624;SDS011;7912;51.376;6.126;2023-03-23T11:38:26;1.37;;;1.10;;
15624;SDS011;7912;51.376;6.126;2023-03-23T11:40:53;1.23;;;1.13;;
15624;SDS011;7912;51.376;6.126;2023-03-23T11:43:26;2.47;;;1.20;;
15624;SDS011;7912;51.376;6.126;2023-03-23T11:56:56;1.77;;;1.10;;
15624;SDS011;7912;51.376;6.126;2023-03-23T11:59:52;1.30;;;1.20;;
15624;SDS011;7912;51.376;6.126;2023-03-23T12:06:20;1.50;;;1.10;;
15624;SDS011;7912;51.376;6.126;2023-03-23T12:09:22;2.47;;;1.57;;
15624;SDS011;7912;51.376;6.126;2023-03-23T12:11:58;2.40;;;1.37;;
15624;SDS011;7912;51.376;6.126;2023-03-23T12:14:43;1.80;;;1.33;;
15624;SDS011;7912;51.376;6.126;2023-03-23T12:56:35;3.37;;;2.10;;
15624;SDS011;7912;51.376;6.126;2023-03-23T13:00:02;4.77;;;2.20;;
15624;SDS011;7912;51.376;6.126;2023-03-23T13:13:47;2.83;;;2.10;;
15624;SDS011;7912;51.376;6.126;2023-03-23T13:21:17;4.10;;;2.20;;
15624;SDS011;7912;51.376;6.126;2023-03-23T13:35:17;3.30;;;2.00;;
15624;SDS011;7912;51.376;6.126;2023-03-23T13:38:55;2.73;;;1.90;;
15624;SDS011;7912;51.376;6.126;2023-03-23T13:49:20;2.23;;;1.90;;
15624;SDS011;7912;51.376;6.126;2023-03-23T13:57:18;3.60;;;2.40;;
15624;SDS011;7912;51.376;6.126;2023-03-23T14:03:55;3.10;;;2.13;;
15624;SDS011;7912;51.376;6.126;2023-03-23T14:11:00;4.70;;;2.13;;
15624;SDS011;7912;51.376;6.126;2023-03-23T14:17:19;3.37;;;2.30;;
15624;SDS011;7912;51.376;6.126;2023-03-23T14:20:43;4.27;;;1.90;;
15624;SDS011;7912;51.376;6.126;2023-03-23T14:30:41;2.90;;;1.70;;
15624;SDS011;7912;51.376;6.126;2023-03-23T14:37:13;3.40;;;2.10;;
15624;SDS011;7912;51.376;6.126;2023-03-23T14:41:15;3.97;;;2.13;;
15624;SDS011;7912;51.376;6.126;2023-03-23T14:44:30;3.97;;;2.00;;
15624;SDS011;7912;51.376;6.126;2023-03-23T14:51:49;3.80;;;1.70;;
15624;SDS011;7912;51.376;6.126;2023-03-23T14:55:30;2.90;;;1.97;;
15624;SDS011;7912;51.376;6.126;2023-03-23T15:01:38;2.83;;;1.63;;
15624;SDS011;7912;51.376;6.126;2023-03-23T15:05:01;3.83;;;1.67;;
15624;SDS011;7912;51.376;6.126;2023-03-23T15:08:10;2.00;;;1.57;;
15624;SDS011;7912;51.376;6.126;2023-03-23T15:11:05;3.33;;;1.73;;
15624;SDS011;7912;51.376;6.126;2023-03-23T15:14:21;4.03;;;1.87;;
15624;SDS011;7912;51.376;6.126;2023-03-23T15:17:53;4.93;;;2.30;;
15624;SDS011;7912;51.376;6.126;2023-03-23T15:28:15;3.23;;;1.93;;
15624;SDS011;7912;51.376;6.126;2023-03-23T15:35:32;4.13;;;2.40;;
15624;SDS011;7912;51.376;6.126;2023-03-23T15:39:02;4.57;;;2.33;;
15624;SDS011;7912;51.376;6.126;2023-03-23T15:45:50;3.97;;;2.30;;
15624;SDS011;7912;51.376;6.126;2023-03-23T15:58:44;4.30;;;2.37;;
15624;SDS011;7912;51.376;6.126;2023-03-23T16:02:10;3.47;;;2.17;;
15624;SDS011;7912;51.376;6.126;2023-03-23T16:04:58;5.53;;;2.63;;
15624;SDS011;7912;51.376;6.126;2023-03-23T16:07:26;3.53;;;2.30;;
15624;SDS011;7912;51.376;6.126;2023-03-23T16:17:14;4.77;;;2.40;;
15624;SDS011;7912;51.376;6.126;2023-03-23T16:23:24;4.87;;;2.30;;
15624;SDS011;7912;51.376;6.126;2023-03-23T16:26:00;3.70;;;2.20;;
15624;SDS011;7912;51.376;6.126;2023-03-23T16:28:41;3.60;;;2.10;;
15624;SDS011;7912;51.376;6.126;2023-03-23T16:31:52;4.30;;;2.23;;
15624;SDS011;7912;51.376;6.126;2023-03-23T16:34:26;3.13;;;2.37;;
15624;SDS011;7912;51.376;6.126;2023-03-23T16:46:20;4.17;;;2.47;;
15624;SDS011;7912;51.376;6.126;2023-03-23T16:58:49;4.23;;;2.27;;
15624;SDS011;7912;51.376;6.126;2023-03-23T17:01:40;4.73;;;2.23;;
15624;SDS011;7912;51.376;6.126;2023-03-23T17:04:15;3.97;;;2.70;;
15624;SDS011;7912;51.376;6.126;2023-03-23T17:06:59;4.20;;;2.30;;
15624;SDS011;7912;51.376;6.126;2023-03-23T17:10:12;4.53;;;2.23;;
15624;SDS011;7912;51.376;6.126;2023-03-23T17:17:32;4.07;;;2.17;;
15624;SDS011;7912;51.376;6.126;2023-03-23T17:20:32;3.93;;;2.20;;
15624;SDS011;7912;51.376;6.126;2023-03-23T17:26:53;5.10;;;2.43;;
15624;SDS011;7912;51.376;6.126;2023-03-23T17:29:29;3.97;;;2.37;;
15624;SDS011;7912;51.376;6.126;2023-03-23T17:32:43;4.87;;;2.20;;
15624;SDS011;7912;51.376;6.126;2023-03-23T17:35:58;4.33;;;2.33;;
15624;SDS011;7912;51.376;6.126;2023-03-23T17:38:26;5.67;;;2.47;;
15624;SDS011;7912;51.376;6.126;2023-03-23T17:41:15;3.50;;;1.90;;
15624;SDS011;7912;51.376;6.126;2023-03-23T17:43:43;4.43;;;2.30;;
15624;SDS011;7912;51.376;6.126;2023-03-23T17:54:01;5.93;;;2.50;;
15624;SDS011;7912;51.376;6.126;2023-03-23T17:59:56;6.20;;;2.40;;
15624;SDS011;7912;51.376;6.126;2023-03-23T18:02:23;4.70;;;2.57;;
15624;SDS011;7912;51.376;6.126;2023-03-23T18:14:46;4.00;;;2.23;;
15624;SDS011;7912;51.376;6.126;2023-03-23T18:17:49;3.07;;;2.23;;
15624;SDS011;7912;51.376;6.126;2023-03-23T18:20:31;3.93;;;2.43;;
15624;SDS011;7912;51.376;6.126;2023-03-23T18:23:08;5.50;;;2.60;;
15624;SDS011;7912;51.376;6.126;2023-03-23T18:25:56;5.20;;;2.33;;
15624;SDS011;7912;51.376;6.126;2023-03-23T18:28:55;4.73;;;2.40;;
15624;SDS011;7912;51.376;6.126;2023-03-23T18:31:42;4.27;;;2.30;;
15624;SDS011;7912;51.376;6.126;2023-03-23T18:34:28;3.80;;;2.37;;
15624;SDS011;7912;51.376;6.126;2023-03-23T18:37:21;5.00;;;2.60;;
15624;SDS011;7912;51.376;6.126;2023-03-23T18:40:08;4.87;;;2.40;;
15624;SDS011;7912;51.376;6.126;2023-03-23T18:42:48;6.83;;;2.60;;
15624;SDS011;7912;51.376;6.126;2023-03-23T18:45:51;3.93;;;2.70;;
15624;SDS011;7912;51.376;6.126;2023-03-23T18:48:30;5.67;;;2.70;;
15624;SDS011;7912;51.376;6.126;2023-03-23T18:51:04;3.93;;;2.40;;
15624;SDS011;7912;51.376;6.126;2023-03-23T18:53:56;5.20;;;2.23;;
15624;SDS011;7912;51.376;6.126;2023-03-23T19:03:35;4.50;;;2.67;;
15624;SDS011;7912;51.376;6.126;2023-03-23T19:06:23;5.30;;;2.50;;
15624;SDS011;7912;51.376;6.126;2023-03-23T19:09:06;5.57;;;2.80;;
15624;SDS011;7912;51.376;6.126;2023-03-23T19:11:49;4.80;;;2.80;;
15624;SDS011;7912;51.376;6.126;2023-03-23T19:14:30;5.17;;;2.97;;
15624;SDS011;7912;51.376;6.126;2023-03-23T19:17:35;4.30;;;2.47;;
15624;SDS011;7912;51.376;6.126;2023-03-23T19:20:43;4.97;;;2.53;;
15624;SDS011;7912;51.376;6.126;2023-03-23T19:24:06;4.53;;;2.50;;
15624;SDS011;7912;51.376;6.126;2023-03-23T19:26:44;5.07;;;2.30;;
15624;SDS011;7912;51.376;6.126;2023-03-23T19:29:58;4.17;;;2.33;;
15624;SDS011;7912;51.376;6.126;2023-03-23T19:33:03;5.97;;;2.90;;
15624;SDS011;7912;51.376;6.126;2023-03-23T19:35:42;5.43;;;2.57;;
15624;SDS011;7912;51.376;6.126;2023-03-23T19:38:38;6.17;;;2.23;;
15624;SDS011;7912;51.376;6.126;2023-03-23T19:41:38;3.70;;;2.23;;
15624;SDS011;7912;51.376;6.126;2023-03-23T19:44:24;4.40;;;2.27;;
15624;SDS011;7912;51.376;6.126;2023-03-23T19:47:10;6.80;;;2.73;;
15624;SDS011;7912;51.376;6.126;2023-03-23T19:49:41;4.40;;;2.20;;
15624;SDS011;7912;51.376;6.126;2023-03-23T19:52:38;5.40;;;2.40;;
15624;SDS011;7912;51.376;6.126;2023-03-23T19:55:30;4.40;;;2.33;;
15624;SDS011;7912;51.376;6.126;2023-03-23T19:58:18;3.43;;;2.20;;
15624;SDS011;7912;51.376;6.126;2023-03-23T20:01:00;4.60;;;2.50;;
15624;SDS011;7912;51.376;6.126;2023-03-23T20:03:28;3.57;;;2.47;;
15624;SDS011;7912;51.376;6.126;2023-03-23T20:09:08;3.60;;;2.23;;
15624;SDS011;7912;51.376;6.126;2023-03-23T20:11:36;2.97;;;2.17;;
15624;SDS011;7912;51.376;6.126;2023-03-23T20:14:30;5.27;;;2.50;;
15624;SDS011;7912;51.376;6.126;2023-03-23T20:17:42;3.67;;;2.33;;
15624;SDS011;7912;51.376;6.126;2023-03-23T20:20:49;6.27;;;2.63;;
15624;SDS011;7912;51.376;6.126;2023-03-23T20:23:57;5.07;;;2.53;;
15624;SDS011;7912;51.376;6.126;2023-03-23T20:26:32;3.57;;;2.17;;
15624;SDS011;7912;51.376;6.126;2023-03-23T20:29:31;4.03;;;2.23;;
15624;SDS011;7912;51.376;6.126;2023-03-23T20:32:04;4.93;;;2.10;;
15624;SDS011;7912;51.376;6.126;2023-03-23T20:35:03;3.53;;;2.07;;
15624;SDS011;7912;51.376;6.126;2023-03-23T20:40:45;3.87;;;2.27;;
15624;SDS011;7912;51.376;6.126;2023-03-23T20:43:52;3.67;;;2.10;;
15624;SDS011;7912;51.376;6.126;2023-03-23T20:47:15;2.97;;;2.20;;
15624;SDS011;7912;51.376;6.126;2023-03-23T20:49:51;3.00;;;2.20;;
15624;SDS011;7912;51.376;6.126;2023-03-23T20:52:41;3.50;;;1.97;;
15624;SDS011;7912;51.376;6.126;2023-03-23T20:55:29;3.60;;;2.07;;
15624;SDS011;7912;51.376;6.126;2023-03-23T20:58:05;2.50;;;1.70;;
15624;SDS011;7912;51.376;6.126;2023-03-23T21:00:35;3.23;;;2.20;;
15624;SDS011;7912;51.376;6.126;2023-03-23T21:03:23;2.70;;;1.97;;
15624;SDS011;7912;51.376;6.126;2023-03-23T21:06:29;3.93;;;2.20;;
15624;SDS011;7912;51.376;6.126;2023-03-23T21:09:03;2.57;;;1.97;;
15624;SDS011;7912;51.376;6.126;2023-03-23T21:11:54;6.50;;;2.33;;
15624;SDS011;7912;51.376;6.126;2023-03-23T21:14:37;3.03;;;1.83;;
15624;SDS011;7912;51.376;6.126;2023-03-23T21:17:51;4.17;;;2.27;;
15624;SDS011;7912;51.376;6.126;2023-03-23T21:20:33;3.83;;;2.20;;
15624;SDS011;7912;51.376;6.126;2023-03-23T21:23:19;4.00;;;2.07;;
15624;SDS011;7912;51.376;6.126;2023-03-23T21:26:09;2.80;;;1.90;;
15624;SDS011;7912;51.376;6.126;2023-03-23T21:28:51;3.20;;;1.90;;
15624;SDS011;7912;51.376;6.126;2023-03-23T21:32:00;3.67;;;2.20;;
15624;SDS011;7912;51.376;6.126;2023-03-23T21:34:41;2.73;;;1.70;;
15624;SDS011;7912;51.376;6.126;2023-03-23T21:37:15;3.93;;;2.10;;
15624;SDS011;7912;51.376;6.126;2023-03-23T21:39:52;3.00;;;2.10;;
15624;SDS011;7912;51.376;6.126;2023-03-23T21:42:46;3.97;;;2.20;;
15624;SDS011;7912;51.376;6.126;2023-03-23T21:45:15;3.80;;;2.20;;
15624;SDS011;7912;51.376;6.126;2023-03-23T21:47:52;4.37;;;2.27;;
15624;SDS011;7912;51.376;6.126;2023-03-23T21:50:22;2.70;;;2.23;;
15624;SDS011;7912;51.376;6.126;2023-03-23T21:52:52;4.10;;;2.10;;
15624;SDS011;7912;51.376;6.126;2023-03-23T21:55:23;3.80;;;2.17;;
15624;SDS011;7912;51.376;6.126;2023-03-23T21:57:55;3.10;;;2.13;;